»·PEaware :: N5GL KHND-KRAL

N5GL :: KHND-KRAL

FLIGHT INFORMATION

Flight Status: Arrived
Operator: Privately registered:
United States
More flights under this callsign
Pilot: Georg L. (13308)
Aircraft: SOCATA TBM-900
(TBM9)
More flights by this aircraft type
Origin: KHND Henderson
United States
Destination: KRAL Riverside Mun
United States
More flights between these airports :: More routes between these airports
Route: +CRESO V538 GFS HEC V442 PDZ
File this flight plan on PilotEdge
Remarks:
Altitude:
(Current/Filed)
26,000ft
Speed:
(Current/Filed)
316kts
Departed: 03-Oct-20 08:29 AM
Arrived: 03-Oct-20 09:16 AM
Distance/Time
Traveled:
166nm/0:47
Distance/Time
To Go:
Arrived

Flight Plot

Page will automatically refresh every two minutes.

Flight plan parsing failed; only flown route is shown


Map Options




Map Legend


Flown Route
Filed Route
Departure Airport
Arrival Airport
Navaid (VOR, NDB)
Fix

Horizontal Profiles

Position Reports

Time Latitude Longitude Heading Altitude Ground
Speed
03-Oct-20 07:56 35.975071 -115.138268 0 2425ft 0kts
03-Oct-20 07:57 35.975071 -115.138268 0 2425ft 0kts
03-Oct-20 07:58 35.975071 -115.138268 0 2425ft 0kts
03-Oct-20 07:59 35.975071 -115.138268 0 2425ft 0kts
03-Oct-20 08:00 35.975071 -115.138268 0 2425ft 0kts
03-Oct-20 08:01 35.975071 -115.138268 0 2425ft 0kts
03-Oct-20 08:02 35.975071 -115.138268 0 2425ft 0kts
03-Oct-20 08:03 35.975071 -115.138268 0 2425ft 0kts
03-Oct-20 08:04 35.975071 -115.138268 0 2425ft 0kts
03-Oct-20 08:05 35.975071 -115.138268 0 2425ft 0kts
03-Oct-20 08:06 35.975071 -115.138268 0 2425ft 0kts
03-Oct-20 08:07 35.975071 -115.138268 0 2425ft 0kts
03-Oct-20 08:08 35.975071 -115.138268 0 2425ft 0kts
03-Oct-20 08:09 35.975071 -115.138268 0 2425ft 0kts
03-Oct-20 08:10 35.975071 -115.138268 0 2425ft 0kts
03-Oct-20 08:11 35.975071 -115.138268 0 2425ft 0kts
03-Oct-20 08:12 35.975071 -115.138268 0 2425ft 0kts
03-Oct-20 08:13 35.975071 -115.138268 0 2425ft 0kts
03-Oct-20 08:14 35.975071 -115.138268 0 2425ft 0kts
03-Oct-20 08:15 35.975071 -115.138268 0 2425ft 0kts
03-Oct-20 08:16 35.975071 -115.138268 0 2425ft 0kts
03-Oct-20 08:17 35.975071 -115.138268 0 2425ft 0kts
03-Oct-20 08:18 35.975071 -115.138268 0 2425ft 0kts
03-Oct-20 08:19 35.975071 -115.138268 0 2425ft 0kts
03-Oct-20 08:20 35.975071 -115.138268 0 2425ft 0kts
03-Oct-20 08:21 35.975071 -115.138268 0 2425ft 0kts
03-Oct-20 08:22 35.975252 -115.138183 58 2424ft 2kts
03-Oct-20 08:23 35.975246 -115.137341 90 2425ft 3kts
03-Oct-20 08:24 35.972157 -115.136443 180 2441ft 23kts
03-Oct-20 08:25 35.965864 -115.136524 181 2476ft 22kts
03-Oct-20 08:26 35.963139 -115.136328 95 2491ft 0kts
03-Oct-20 08:27 35.963159 -115.135731 67 2492ft 9kts
03-Oct-20 08:28 35.981028 -115.135033 6 2953ft 121kts
03-Oct-20 08:29 35.997193 -115.114189 94 4201ft 137kts
03-Oct-20 08:30 35.963519 -115.104839 191 6224ft 145kts
03-Oct-20 08:31 35.923746 -115.114670 191 8325ft 150kts
03-Oct-20 08:32 35.881394 -115.125159 191 10046ft 182kts
03-Oct-20 08:33 35.820889 -115.140305 191 10397ft 231kts
03-Oct-20 08:34 35.761778 -115.154976 191 12138ft 215kts
03-Oct-20 08:35 35.702691 -115.169559 191 13560ft 219kts
03-Oct-20 08:36 35.641300 -115.173562 180 14921ft 224kts
03-Oct-20 08:37 35.578297 -115.173944 180 16261ft 229kts
03-Oct-20 08:38 35.513974 -115.174315 180 17618ft 234kts
03-Oct-20 08:39 35.448465 -115.174687 180 18933ft 239kts
03-Oct-20 08:40 35.381318 -115.175069 180 20183ft 243kts
03-Oct-20 08:41 35.313170 -115.175447 180 21395ft 248kts
03-Oct-20 08:42 35.243625 -115.175832 180 22591ft 252kts
03-Oct-20 08:43 35.170940 -115.176231 180 23027ft 278kts
03-Oct-20 08:44 35.117088 -115.231079 253 23037ft 292kts
03-Oct-20 08:45 35.092715 -115.327632 252 23019ft 298kts
03-Oct-20 08:46 35.067936 -115.424690 252 23019ft 300kts
03-Oct-20 08:47 35.042945 -115.522181 252 23018ft 300kts
03-Oct-20 08:48 35.017908 -115.619507 252 23018ft 301kts
03-Oct-20 08:49 34.992644 -115.717326 251 23018ft 301kts
03-Oct-20 08:50 34.967325 -115.815020 251 23018ft 301kts
03-Oct-20 08:51 34.942042 -115.912205 251 23018ft 301kts
03-Oct-20 08:52 34.916611 -116.009687 251 23034ft 301kts
03-Oct-20 08:53 34.891043 -116.107177 250 23059ft 301kts
03-Oct-20 08:54 34.865449 -116.204474 250 23067ft 302kts
03-Oct-20 08:55 34.839874 -116.301347 250 23067ft 301kts
03-Oct-20 08:56 34.814159 -116.398402 250 23035ft 301kts
03-Oct-20 08:57 34.785843 -116.494164 244 23019ft 300kts
03-Oct-20 08:58 34.752488 -116.586970 244 22997ft 300kts
03-Oct-20 08:59 34.717926 -116.682919 244 21948ft 320kts
03-Oct-20 09:00 34.681645 -116.783360 244 20503ft 325kts
03-Oct-20 09:02 34.644997 -116.884492 245 18522ft 332kts
03-Oct-20 09:03 34.607786 -116.986920 245 16055ft 332kts
03-Oct-20 09:04 34.571043 -117.087700 245 13602ft 321kts
03-Oct-20 09:05 34.518825 -117.167340 206 11859ft 297kts
03-Oct-20 09:06 34.449268 -117.209811 206 11850ft 270kts
03-Oct-20 09:07 34.379288 -117.252259 206 10587ft 291kts
03-Oct-20 09:08 34.304685 -117.291636 181 9059ft 293kts
03-Oct-20 09:09 34.225283 -117.294517 181 7857ft 280kts
03-Oct-20 09:10 34.148787 -117.298655 186 7218ft 272kts
03-Oct-20 09:11 34.072880 -117.309403 186 5268ft 269kts
03-Oct-20 09:12 34.001626 -117.331223 198 3290ft 260kts
03-Oct-20 09:13 33.950383 -117.369070 238 2583ft 183kts
03-Oct-20 09:14 33.945550 -117.409262 282 1543ft 98kts
03-Oct-20 09:15 33.951364 -117.438854 282 818ft 69kts
03-Oct-20 09:16 33.951308 -117.442130 252 818ft 0kts
03-Oct-20 09:16 33.951210 -117.442258 169 818ft 4kts
03-Oct-20 09:18 33.950497 -117.440969 272 818ft 9kts
03-Oct-20 09:19 33.950108 -117.442892 207 818ft 0kts
03-Oct-20 09:19 33.950108 -117.442892 207 818ft 0kts
03-Oct-20 09:20 33.950108 -117.442892 207 818ft 0kts
03-Oct-20 09:22 33.950108 -117.442892 207 818ft 0kts
03-Oct-20 09:22 33.950108 -117.442892 207 818ft 0kts
03-Oct-20 09:23 33.950000 -117.442662 306 818ft 1kts
03-Oct-20 09:24 33.949910 -117.442536 345 818ft 0kts

Navigation Log

Ident Type
Flight plan parsing failed, navigation log unavailable